Time;durP1;ratioP1;P1;durP2;ratioP2;P2;SDS_P1;SDS_P2;PMS_P1;PMS_P2;Temp;Humidity;BMP_temperature;BMP_pressure;BME280_temperature;BME280_humidity;BME280_pressure;Samples;Min_cycle;Max_cycle;Signal;HPM_P1;HPM_P2
2022/11/07 00:02:16;;;;;;;12.73;7.00;;;9.90;99.90;;;;;;5028916;28;20957;-74
2022/11/07 00:04:42;;;;;;;11.30;6.67;;;9.90;99.90;;;;;;5027946;28;20531;-74
2022/11/07 00:07:09;;;;;;;16.07;7.33;;;9.90;99.90;;;;;;5024906;28;20178;-75
2022/11/07 00:09:35;;;;;;;12.50;7.33;;;10.00;99.90;;;;;;5021693;28;20384;-75
2022/11/07 00:12:01;;;;;;;12.53;7.43;;;10.00;99.90;;;;;;5030802;28;20285;-75
2022/11/07 00:14:27;;;;;;;13.93;7.17;;;10.00;99.90;;;;;;5044371;28;20290;-75
2022/11/07 00:16:52;;;;;;;15.07;6.60;;;10.00;99.90;;;;;;5029731;28;20125;-74
2022/11/07 00:19:20;;;;;;;15.53;6.90;;;10.00;99.90;;;;;;5023972;28;20095;-74
2022/11/07 00:21:47;;;;;;;13.13;6.77;;;10.00;99.90;;;;;;5023730;28;20044;-74
2022/11/07 00:24:16;;;;;;;14.90;6.50;;;10.00;99.90;;;;;;5041059;28;20284;-74
2022/11/07 00:26:43;;;;;;;13.10;6.33;;;10.00;99.90;;;;;;5039929;28;21104;-75
2022/11/07 00:29:17;;;;;;;9.87;6.70;;;10.00;99.90;;;;;;5023478;28;20946;-75
2022/11/07 00:31:43;;;;;;;14.33;6.73;;;10.00;99.90;;;;;;5020812;28;20794;-75
2022/11/07 00:34:10;;;;;;;13.83;6.90;;;10.00;99.90;;;;;;5030852;28;20291;-75
2022/11/07 00:36:36;;;;;;;16.97;7.73;;;10.10;99.90;;;;;;5030127;28;20485;-75
2022/11/07 00:39:02;;;;;;;19.77;8.23;;;10.10;99.90;;;;;;5030237;28;20801;-75
2022/11/07 00:41:27;;;;;;;15.50;8.43;;;10.10;99.90;;;;;;5012312;28;20291;-75
2022/11/07 00:43:53;;;;;;;17.10;7.67;;;10.10;99.90;;;;;;5013897;28;20178;-75
2022/11/07 00:46:20;;;;;;;10.87;6.10;;;10.10;99.90;;;;;;5033498;28;20047;-75
2022/11/07 00:48:46;;;;;;;15.33;6.23;;;10.10;99.90;;;;;;5030179;28;20040;-76
2022/11/07 00:51:18;;;;;;;14.33;7.17;;;10.10;99.90;;;;;;5042529;28;20293;-76
2022/11/07 00:53:44;;;;;;;13.40;7.20;;;10.10;99.90;;;;;;5016509;28;20283;-77
2022/11/07 00:56:12;;;;;;;14.17;7.07;;;10.10;99.90;;;;;;5012889;28;20294;-76
2022/11/07 00:58:38;;;;;;;10.97;7.10;;;10.10;99.90;;;;;;5044165;28;20047;-75
2022/11/07 01:01:25;;;;;;;13.80;7.07;;;10.10;99.90;;;;;;5028279;28;20283;-75
2022/11/07 01:06:38;;;;;;;16.73;6.78;;;10.20;99.90;;;;;;5062755;28;20291;-76
2022/11/07 01:09:11;;;;;;;14.83;6.70;;;10.20;99.90;;;;;;5023045;28;20066;-75
2022/11/07 01:11:38;;;;;;;14.80;5.67;;;10.20;99.90;;;;;;5029276;28;20287;-75
2022/11/07 01:14:05;;;;;;;16.90;6.77;;;10.20;99.90;;;;;;5031663;28;20321;-75
2022/11/07 01:16:34;;;;;;;11.40;5.80;;;10.10;99.90;;;;;;5040989;28;20617;-75
2022/11/07 01:19:01;;;;;;;12.67;6.10;;;10.20;99.90;;;;;;5043364;28;20289;-74
2022/11/07 01:21:27;;;;;;;13.80;5.53;;;10.20;99.90;;;;;;5034174;28;20289;-75
2022/11/07 01:23:53;;;;;;;14.30;6.00;;;10.20;99.90;;;;;;5044637;28;20758;-75
2022/11/07 01:26:18;;;;;;;14.60;6.77;;;10.20;99.90;;;;;;5038243;28;20103;-75
2022/11/07 01:28:44;;;;;;;15.87;6.40;;;10.20;99.90;;;;;;5026674;28;20048;-75
2022/11/07 01:31:13;;;;;;;10.03;5.23;;;10.20;99.90;;;;;;5024674;28;20063;-75
2022/11/07 01:33:44;;;;;;;10.67;5.30;;;10.20;99.90;;;;;;5046011;28;20110;-74
2022/11/07 01:36:14;;;;;;;13.13;4.83;;;10.10;99.90;;;;;;5029687;28;20322;-75
2022/11/07 01:38:43;;;;;;;13.60;4.70;;;10.10;99.90;;;;;;5026645;28;20036;-75
2022/11/07 01:41:22;;;;;;;9.97;4.30;;;10.00;99.90;;;;;;5062653;28;20293;-75
2022/11/07 01:43:53;;;;;;;13.97;4.37;;;10.00;99.90;;;;;;5045853;28;20291;-75
2022/11/07 01:46:21;;;;;;;14.13;4.63;;;9.90;99.90;;;;;;5027428;28;20299;-74
2022/11/07 01:49:06;;;;;;;15.30;4.80;;;9.90;99.90;;;;;;5045546;28;20306;-74
2022/11/07 01:51:36;;;;;;;10.40;4.67;;;9.80;99.90;;;;;;5019084;28;20275;-74
2022/11/07 01:54:03;;;;;;;13.13;4.43;;;9.80;99.90;;;;;;5028860;28;20271;-74
2022/11/07 01:56:32;;;;;;;14.97;5.23;;;9.80;99.90;;;;;;5023468;28;20295;-74
2022/11/07 01:59:00;;;;;;;12.20;5.40;;;9.80;99.90;;;;;;5022502;28;20279;-74
2022/11/07 02:01:25;;;;;;;15.83;5.77;;;9.80;99.90;;;;;;5022125;28;20291;-74
2022/11/07 02:03:52;;;;;;;14.23;5.17;;;9.90;99.90;;;;;;5011334;28;20298;-74
2022/11/07 02:06:54;;;;;;;13.33;4.63;;;9.90;99.90;;;;;;5038389;28;20182;-74
2022/11/07 02:09:20;;;;;;;13.40;4.20;;;9.90;99.90;;;;;;5013012;28;20310;-75
2022/11/07 02:11:45;;;;;;;7.63;3.40;;;10.00;99.90;;;;;;5032923;28;20291;-74
2022/11/07 02:14:16;;;;;;;11.80;3.50;;;10.00;99.90;;;;;;5019513;28;20655;-74
2022/11/07 02:16:42;;;;;;;12.13;4.03;;;10.00;99.90;;;;;;5029589;28;20087;-74
2022/11/07 02:19:17;;;;;;;15.37;5.33;;;10.00;99.90;;;;;;5032362;28;20678;-75
2022/11/07 02:21:47;;;;;;;;;;;10.10;99.90;;;;;;5029798;28;20352;-74
2022/11/07 02:24:27;;;;;;;9.97;3.70;;;10.10;99.90;;;;;;5049640;28;19946;-74
2022/11/07 02:26:55;;;;;;;9.07;3.80;;;10.00;99.90;;;;;;5049098;28;20931;-74
2022/11/07 02:29:23;;;;;;;12.97;4.20;;;10.00;99.90;;;;;;5031786;28;20295;-75
2022/11/07 02:32:02;;;;;;;13.53;3.57;;;10.00;99.90;;;;;;5048649;28;20287;-74
2022/11/07 02:34:29;;;;;;;10.27;2.80;;;9.90;99.90;;;;;;5050012;28;20342;-75
2022/11/07 02:36:55;;;;;;;9.60;2.43;;;9.90;99.90;;;;;;5031994;28;20294;-74
2022/11/07 02:39:22;;;;;;;10.77;2.60;;;9.90;99.90;;;;;;5065804;28;20797;-74
2022/11/07 02:41:48;;;;;;;15.83;2.73;;;9.90;99.90;;;;;;5031413;28;20318;-74
2022/11/07 02:44:13;;;;;;;9.50;2.40;;;9.90;99.90;;;;;;5033085;28;20283;-75
2022/11/07 02:46:40;;;;;;;11.43;2.83;;;9.90;99.90;;;;;;5032010;28;20340;-75
2022/11/07 02:49:05;;;;;;;11.43;3.30;;;9.90;99.90;;;;;;5045060;28;20436;-74
2022/11/07 02:51:31;;;;;;;13.80;3.47;;;10.00;99.90;;;;;;5031803;28;20287;-75
2022/11/07 02:53:57;;;;;;;12.57;3.63;;;10.00;99.90;;;;;;5030641;28;20041;-74
2022/11/07 02:56:23;;;;;;;10.97;3.57;;;10.10;99.90;;;;;;5028591;28;20109;-75
2022/11/07 02:58:51;;;;;;;20.30;3.70;;;10.10;99.90;;;;;;5026984;28;20239;-75
2022/11/07 03:01:17;;;;;;;14.47;4.10;;;10.10;99.90;;;;;;5030839;28;20283;-75
2022/11/07 03:03:45;;;;;;;8.47;3.87;;;10.10;99.90;;;;;;5036707;28;20708;-75
2022/11/07 03:06:17;;;;;;;11.23;3.60;;;10.20;99.90;;;;;;5061720;28;20275;-75
2022/11/07 03:08:43;;;;;;;8.63;2.50;;;10.20;99.90;;;;;;5047920;28;20305;-75
2022/11/07 03:11:11;;;;;;;9.30;2.20;;;10.20;99.90;;;;;;5030527;28;20465;-75
2022/11/07 03:13:37;;;;;;;9.17;2.03;;;10.20;99.90;;;;;;5031859;28;20849;-76
2022/11/07 03:16:07;;;;;;;12.57;2.00;;;10.20;99.90;;;;;;5030797;28;20287;-75
2022/11/07 03:18:34;;;;;;;8.40;2.17;;;10.20;99.90;;;;;;5030748;28;20389;-75
2022/11/07 03:21:00;;;;;;;9.97;2.30;;;10.10;99.90;;;;;;5020110;28;20287;-74
2022/11/07 03:23:26;;;;;;;8.30;2.10;;;10.00;99.90;;;;;;5044129;28;20347;-75
2022/11/07 03:25:51;;;;;;;17.00;2.40;;;10.00;99.90;;;;;;5030389;28;20767;-75
2022/11/07 03:28:17;;;;;;;12.53;2.17;;;10.00;99.90;;;;;;5014352;28;20044;-75
2022/11/07 03:30:43;;;;;;;11.17;2.10;;;10.00;99.90;;;;;;5010569;28;20567;-75
2022/11/07 03:33:09;;;;;;;7.83;2.00;;;10.00;99.90;;;;;;5047898;28;20416;-75
2022/11/07 03:35:35;;;;;;;14.50;2.33;;;10.00;99.90;;;;;;5027802;28;20052;-73
2022/11/07 03:38:00;;;;;;;15.57;2.83;;;10.00;99.90;;;;;;5031192;28;20044;-73
2022/11/07 03:40:26;;;;;;;14.27;2.40;;;10.00;99.90;;;;;;5027624;28;20036;-73
2022/11/07 03:42:52;;;;;;;9.63;2.47;;;10.00;99.90;;;;;;5010471;28;20049;-72
2022/11/07 03:45:18;;;;;;;13.90;2.07;;;10.00;99.90;;;;;;5022351;28;20555;-72
2022/11/07 03:47:45;;;;;;;12.77;2.27;;;10.00;99.90;;;;;;5047534;28;20040;-73
2022/11/07 03:50:16;;;;;;;13.53;2.60;;;10.00;99.90;;;;;;5031037;28;20230;-73
2022/11/07 03:52:43;;;;;;;12.93;2.47;;;10.00;99.90;;;;;;5029155;28;20654;-73
2022/11/07 03:55:09;;;;;;;10.63;2.23;;;10.10;99.90;;;;;;5039239;28;20275;-72
2022/11/07 03:57:35;;;;;;;12.33;2.33;;;10.00;99.90;;;;;;5041787;28;20287;-72
2022/11/07 04:00:02;;;;;;;13.37;3.40;;;10.00;99.90;;;;;;5029526;28;20302;-72
2022/11/07 04:02:28;;;;;;;9.97;2.53;;;9.90;99.90;;;;;;5051324;28;20082;-73
2022/11/07 04:04:54;;;;;;;14.07;3.20;;;10.00;99.90;;;;;;5027114;28;20330;-73
2022/11/07 04:07:19;;;;;;;17.23;3.87;;;10.00;99.90;;;;;;5036763;28;20357;-74
2022/11/07 04:09:45;;;;;;;12.33;3.10;;;10.10;99.90;;;;;;5030966;28;20032;-73
2022/11/07 04:17:39;;;;;;;14.50;3.20;;;10.10;99.90;;;;;;5032168;28;20295;-74
2022/11/07 04:20:05;;;;;;;12.23;3.00;;;10.10;99.90;;;;;;5028696;28;20823;-74
2022/11/07 04:22:31;;;;;;;12.43;2.90;;;10.20;99.90;;;;;;5012839;28;20045;-75
2022/11/07 04:24:57;;;;;;;11.83;3.10;;;10.20;99.90;;;;;;5029660;28;20310;-74
2022/11/07 04:30:19;;;;;;;16.33;3.10;;;10.20;99.90;;;;;;5032498;28;20048;-76
2022/11/07 04:32:57;;;;;;;11.77;3.67;;;10.20;99.90;;;;;;5030865;28;20696;-76
2022/11/07 04:35:25;;;;;;;10.27;3.37;;;10.20;99.90;;;;;;5047471;28;20287;-75
2022/11/07 04:37:51;;;;;;;14.73;3.17;;;10.20;99.90;;;;;;5030185;28;20383;-75
2022/11/07 04:40:18;;;;;;;10.93;3.20;;;10.20;99.90;;;;;;5036333;28;20312;-75
2022/11/07 04:42:45;;;;;;;15.70;4.13;;;10.10;99.90;;;;;;5029898;28;20351;-75
2022/11/07 04:45:11;;;;;;;11.23;2.67;;;10.10;99.90;;;;;;5030664;28;20307;-75
2022/11/07 04:47:38;;;;;;;14.17;3.17;;;10.00;99.90;;;;;;5019390;28;20352;-74
2022/11/07 04:50:06;;;;;;;14.87;2.97;;;9.90;99.90;;;;;;5027740;28;20279;-74
2022/11/07 04:52:32;;;;;;;10.30;2.90;;;9.90;99.90;;;;;;5023879;28;20287;-74
2022/11/07 04:54:58;;;;;;;10.27;2.90;;;9.80;99.90;;;;;;5029732;28;20833;-74
2022/11/07 04:57:24;;;;;;;12.30;3.00;;;9.80;99.90;;;;;;5029477;28;20040;-75
2022/11/07 04:59:49;;;;;;;12.53;3.07;;;9.80;99.90;;;;;;5029590;28;20063;-75
2022/11/07 05:02:15;;;;;;;10.73;2.93;;;9.70;99.90;;;;;;5017577;28;20491;-75
2022/11/07 05:04:41;;;;;;;11.00;2.67;;;9.70;99.90;;;;;;5024140;28;20047;-75
2022/11/07 05:07:07;;;;;;;13.97;2.90;;;9.70;99.90;;;;;;5007428;28;20036;-74
2022/11/07 05:09:34;;;;;;;13.90;2.87;;;9.70;99.90;;;;;;5009099;28;20127;-74
2022/11/07 05:12:01;;;;;;;10.97;2.77;;;9.70;99.90;;;;;;5038630;28;20294;-75
2022/11/07 05:14:29;;;;;;;9.17;2.37;;;9.70;99.90;;;;;;5038693;28;20298;-75
2022/11/07 05:16:56;;;;;;;11.83;2.80;;;9.70;99.90;;;;;;5029556;28;20344;-74
2022/11/07 05:19:22;;;;;;;15.40;3.00;;;9.80;99.90;;;;;;5022553;28;20670;-75
2022/11/07 05:23:10;;;;;;;11.30;3.13;;;9.90;99.90;;;;;;5034845;28;20298;-75
2022/11/07 05:24:33;;;;;;;;;;;9.90;99.90;;;;;;5031299;28;20134;-75
2022/11/07 05:26:59;;;;;;;12.63;2.77;;;10.00;99.90;;;;;;5044842;28;20413;-75
2022/11/07 05:29:25;;;;;;;11.90;2.90;;;10.00;99.90;;;;;;5008992;28;20040;-74
2022/11/07 05:31:50;;;;;;;11.63;2.70;;;10.00;99.90;;;;;;5028656;28;20049;-74
2022/11/07 05:34:16;;;;;;;12.00;2.50;;;10.00;99.90;;;;;;5042928;28;20036;-75
2022/11/07 05:36:42;;;;;;;12.00;2.30;;;9.90;99.90;;;;;;5029659;28;20048;-75
2022/11/07 05:39:07;;;;;;;12.67;2.50;;;9.90;99.90;;;;;;5042671;28;20044;-75
2022/11/07 05:41:34;;;;;;;9.10;1.93;;;9.90;99.90;;;;;;5027472;28;20075;-75
2022/11/07 05:44:01;;;;;;;10.30;3.00;;;9.90;99.90;;;;;;5024742;28;20044;-74
2022/11/07 05:46:26;;;;;;;13.07;3.00;;;10.00;99.90;;;;;;5029456;28;20298;-76
2022/11/07 05:48:52;;;;;;;10.20;4.00;;;9.90;99.90;;;;;;5022293;28;20290;-74
2022/11/07 05:51:18;;;;;;;10.47;3.10;;;9.90;99.90;;;;;;5028979;28;20036;-75
2022/11/07 05:53:44;;;;;;;12.90;3.27;;;9.90;99.90;;;;;;5042256;28;20051;-75
2022/11/07 05:56:10;;;;;;;12.07;2.80;;;9.90;99.90;;;;;;5027410;28;20036;-74
2022/11/07 05:58:36;;;;;;;15.93;2.87;;;9.90;99.90;;;;;;5032883;28;20041;-74
2022/11/07 06:01:04;;;;;;;13.77;2.70;;;9.90;99.90;;;;;;5017192;28;20048;-74
2022/11/07 06:03:30;;;;;;;10.87;2.43;;;9.80;99.90;;;;;;5036861;28;20313;-75
2022/11/07 06:05:56;;;;;;;12.30;2.50;;;9.80;99.90;;;;;;5027888;28;20312;-74
2022/11/07 06:08:22;;;;;;;9.00;2.90;;;9.90;99.90;;;;;;5035341;28;20335;-75
2022/11/07 06:10:48;;;;;;;11.30;2.47;;;9.90;99.90;;;;;;5024498;28;20071;-75
2022/11/07 06:13:15;;;;;;;8.77;2.60;;;10.00;99.90;;;;;;5037507;28;20314;-75
2022/11/07 06:15:42;;;;;;;13.17;2.97;;;10.00;99.90;;;;;;5031733;28;20037;-75
2022/11/07 06:18:16;;;;;;;11.77;3.20;;;10.00;99.90;;;;;;5046350;28;20290;-75
2022/11/07 06:20:42;;;;;;;11.50;3.13;;;10.00;99.90;;;;;;5025213;28;20291;-75
2022/11/07 06:23:07;;;;;;;12.40;3.70;;;10.00;99.90;;;;;;5015649;28;20289;-74
2022/11/07 06:25:34;;;;;;;11.40;3.40;;;10.10;99.90;;;;;;5032310;28;20074;-75
2022/11/07 06:28:02;;;;;;;16.60;4.07;;;10.10;99.90;;;;;;5047603;28;20044;-74
2022/11/07 06:30:28;;;;;;;14.43;4.20;;;10.10;99.90;;;;;;5031821;28;20833;-75
2022/11/07 06:32:55;;;;;;;13.70;4.73;;;10.00;99.90;;;;;;5029632;28;20294;-75
2022/11/07 06:35:21;;;;;;;16.17;4.67;;;10.10;99.90;;;;;;5038152;28;20279;-74
2022/11/07 06:37:47;;;;;;;16.10;5.40;;;10.10;99.90;;;;;;5006264;28;20684;-75
2022/11/07 06:40:13;;;;;;;15.03;5.13;;;10.10;99.90;;;;;;5037646;28;20286;-75
2022/11/07 06:42:38;;;;;;;17.27;4.80;;;10.10;99.90;;;;;;5038519;28;20083;-75
2022/11/07 06:45:04;;;;;;;18.87;5.30;;;10.10;99.90;;;;;;5027662;28;20052;-75
2022/11/07 06:47:30;;;;;;;19.33;5.03;;;10.10;99.90;;;;;;5014064;28;20516;-75
2022/11/07 06:49:56;;;;;;;16.77;4.90;;;10.10;99.90;;;;;;5028901;28;20283;-76
2022/11/07 06:52:21;;;;;;;17.23;4.80;;;10.10;99.90;;;;;;5016225;28;20136;-75
2022/11/07 06:54:47;;;;;;;19.17;5.30;;;10.10;99.90;;;;;;5015753;28;20037;-76
2022/11/07 06:57:13;;;;;;;21.50;5.30;;;10.10;99.90;;;;;;5025330;28;20128;-75
2022/11/07 06:59:38;;;;;;;18.07;4.90;;;10.10;99.90;;;;;;5016223;28;20080;-75
2022/11/07 07:02:04;;;;;;;21.00;5.30;;;10.20;99.90;;;;;;5018390;28;20479;-75
2022/11/07 07:04:30;;;;;;;16.63;4.87;;;10.10;99.90;;;;;;5032322;28;20119;-75
2022/11/07 07:06:56;;;;;;;15.83;4.20;;;10.20;99.90;;;;;;5027237;28;20764;-74
2022/11/07 07:09:21;;;;;;;15.67;4.50;;;10.20;99.90;;;;;;5050012;28;20128;-74
2022/11/07 07:11:47;;;;;;;19.50;4.60;;;10.10;99.90;;;;;;5031744;28;20086;-74
2022/11/07 07:14:13;;;;;;;16.13;3.93;;;10.20;99.90;;;;;;5017813;28;20036;-74
2022/11/07 07:16:38;;;;;;;15.80;3.93;;;10.20;99.90;;;;;;5031006;28;20040;-76
2022/11/07 07:19:04;;;;;;;16.20;3.37;;;10.20;99.90;;;;;;5010228;28;20049;-75
2022/11/07 07:21:30;;;;;;;19.47;4.17;;;10.20;99.90;;;;;;5016088;28;20429;-75
2022/11/07 07:23:55;;;;;;;21.80;3.70;;;10.20;99.90;;;;;;5031242;28;20558;-75
2022/11/07 07:26:21;;;;;;;20.40;4.17;;;10.20;99.90;;;;;;5032087;28;20048;-76
2022/11/07 07:28:50;;;;;;;22.80;4.43;;;10.20;99.90;;;;;;5028903;28;20036;-75
2022/11/07 07:31:16;;;;;;;21.13;4.50;;;10.20;99.90;;;;;;5028902;28;20361;-75
2022/11/07 07:33:43;;;;;;;18.97;4.87;;;10.30;99.90;;;;;;5027673;28;20280;-75
2022/11/07 07:36:10;;;;;;;19.20;4.10;;;10.30;99.90;;;;;;5029083;28;20514;-75
2022/11/07 07:38:36;;;;;;;20.47;5.50;;;10.20;99.90;;;;;;5028039;28;20558;-75
2022/11/07 07:41:02;;;;;;;20.77;4.70;;;10.30;99.90;;;;;;5012600;28;20322;-75
2022/11/07 07:43:28;;;;;;;21.47;4.60;;;10.30;99.90;;;;;;5060820;28;20315;-76
2022/11/07 07:46:02;;;;;;;22.63;4.60;;;10.30;99.90;;;;;;5025957;28;20513;-76
2022/11/07 07:48:29;;;;;;;21.03;3.83;;;10.30;99.90;;;;;;5045192;28;20728;-75
2022/11/07 07:50:56;;;;;;;13.67;3.90;;;10.30;99.90;;;;;;5045187;28;20361;-77
2022/11/07 07:53:22;;;;;;;18.67;3.87;;;10.30;99.90;;;;;;5008894;28;20658;-77
2022/11/07 07:55:47;;;;;;;25.67;4.33;;;10.30;99.90;;;;;;5060630;28;20291;-76
2022/11/07 07:58:16;;;;;;;22.47;4.10;;;10.40;99.90;;;;;;5027533;28;20280;-77
2022/11/07 08:00:42;;;;;;;17.13;3.93;;;10.40;99.90;;;;;;5012220;28;20279;-76
2022/11/07 08:03:12;;;;;;;18.53;4.30;;;10.40;99.90;;;;;;5027716;28;20455;-76
2022/11/07 08:05:38;;;;;;;17.73;4.27;;;10.50;99.90;;;;;;5043361;28;20044;-75
2022/11/07 08:08:06;;;;;;;24.93;4.93;;;10.50;99.90;;;;;;5026795;28;20399;-74
2022/11/07 08:10:32;;;;;;;23.67;4.83;;;10.50;99.90;;;;;;5028178;28;20279;-76
2022/11/07 08:12:58;;;;;;;22.87;4.97;;;10.50;99.90;;;;;;5028532;28;20275;-76
2022/11/07 08:15:24;;;;;;;27.40;5.27;;;10.50;99.90;;;;;;5028184;28;21124;-75
2022/11/07 08:17:50;;;;;;;25.67;5.60;;;10.50;99.90;;;;;;5029965;28;20048;-76
2022/11/07 08:20:19;;;;;;;17.00;4.50;;;10.50;99.90;;;;;;5043138;28;20636;-76
2022/11/07 08:22:45;;;;;;;18.80;4.50;;;10.50;99.90;;;;;;5033357;28;20049;-76
2022/11/07 08:25:11;;;;;;;20.53;4.60;;;10.50;99.90;;;;;;5011187;28;20290;-75
2022/11/07 08:27:37;;;;;;;14.30;4.20;;;10.60;99.90;;;;;;5011221;28;20283;-76
2022/11/07 08:30:06;;;;;;;23.87;4.57;;;10.60;99.90;;;;;;5029498;28;20287;-76
2022/11/07 08:32:32;;;;;;;16.80;5.07;;;10.60;99.90;;;;;;5035324;28;20318;-76
2022/11/07 08:34:57;;;;;;;17.00;5.60;;;10.60;99.90;;;;;;5033739;28;20366;-75
2022/11/07 08:37:23;;;;;;;18.67;4.90;;;10.60;99.90;;;;;;5039690;28;20454;-75
2022/11/07 08:39:49;;;;;;;19.40;5.13;;;10.70;99.90;;;;;;5027063;28;20436;-75
2022/11/07 08:42:15;;;;;;;16.83;5.10;;;10.70;99.90;;;;;;5035705;28;20055;-77
2022/11/07 08:44:40;;;;;;;29.27;5.67;;;10.70;99.90;;;;;;5029879;28;20044;-76
2022/11/07 08:47:06;;;;;;;23.07;5.87;;;10.70;99.90;;;;;;5047811;28;20406;-75
2022/11/07 08:49:32;;;;;;;21.87;5.53;;;10.70;99.90;;;;;;5031621;28;20051;-76
2022/11/07 08:51:59;;;;;;;20.97;5.50;;;10.80;99.90;;;;;;5031354;28;20044;-76
2022/11/07 08:54:25;;;;;;;20.27;5.83;;;10.80;99.90;;;;;;5047609;28;20441;-76
2022/11/07 08:56:51;;;;;;;19.13;4.97;;;10.80;99.90;;;;;;5014195;28;20286;-76
2022/11/07 08:59:17;;;;;;;20.50;5.33;;;10.80;99.90;;;;;;5029760;28;20288;-77
2022/11/07 09:01:43;;;;;;;18.87;4.73;;;10.80;99.90;;;;;;5031001;28;20102;-76
2022/11/07 09:04:09;;;;;;;20.77;5.33;;;10.80;99.90;;;;;;5009977;28;20291;-76
2022/11/07 09:06:34;;;;;;;18.50;5.30;;;10.80;99.90;;;;;;5030540;28;20558;-76
2022/11/07 09:09:01;;;;;;;17.47;4.80;;;10.80;99.90;;;;;;5023938;28;20036;-76
2022/11/07 09:11:27;;;;;;;18.83;4.50;;;10.80;99.90;;;;;;5063832;28;20392;-76
2022/11/07 09:13:54;;;;;;;17.87;4.20;;;10.90;99.90;;;;;;5029236;28;20275;-76
2022/11/07 09:16:21;;;;;;;19.90;4.80;;;11.00;99.90;;;;;;5034334;28;20323;-76
2022/11/07 09:18:49;;;;;;;16.70;4.27;;;11.00;99.90;;;;;;5029399;28;20279;-75
2022/11/07 09:21:15;;;;;;;15.47;3.70;;;11.00;99.90;;;;;;5046144;28;20643;-76
2022/11/07 09:23:41;;;;;;;16.30;4.53;;;11.00;99.90;;;;;;5013646;28;20290;-76
2022/11/07 09:26:07;;;;;;;20.03;4.40;;;11.00;99.90;;;;;;5047002;28;20283;-76
2022/11/07 09:28:33;;;;;;;22.83;5.50;;;10.90;99.90;;;;;;5028407;28;20142;-76
2022/11/07 09:31:00;;;;;;;21.20;4.60;;;10.90;99.90;;;;;;5030430;28;20815;-76
2022/11/07 09:33:27;;;;;;;24.67;5.13;;;11.00;99.90;;;;;;5029666;28;20806;-76
2022/11/07 09:35:53;;;;;;;15.83;4.10;;;11.10;99.90;;;;;;5047019;28;20687;-76
2022/11/07 09:38:19;;;;;;;16.23;3.90;;;11.10;99.90;;;;;;5016802;28;20663;-76
2022/11/07 09:41:20;;;;;;;12.70;3.90;;;11.10;99.90;;;;;;5047039;28;20282;-76
2022/11/07 09:43:51;;;;;;;16.97;4.50;;;11.10;99.90;;;;;;5008845;28;20344;-76
2022/11/07 09:46:31;;;;;;;18.13;4.70;;;11.10;99.90;;;;;;5046047;28;20294;-73
2022/11/07 09:49:09;;;;;;;21.03;5.27;;;11.10;99.90;;;;;;5029821;28;20383;-74
2022/11/07 09:51:38;;;;;;;13.97;4.37;;;11.20;99.90;;;;;;5029405;28;20778;-74
2022/11/07 09:54:10;;;;;;;17.67;4.10;;;11.20;99.90;;;;;;5026351;28;20282;-73
2022/11/07 09:56:36;;;;;;;19.30;4.00;;;11.20;99.90;;;;;;5030040;28;20386;-73
2022/11/07 09:59:06;;;;;;;20.00;4.17;;;11.30;99.90;;;;;;5045459;28;20420;-73
2022/11/07 10:01:32;;;;;;;10.07;3.33;;;11.30;99.90;;;;;;5047002;28;20048;-73
2022/11/07 10:03:59;;;;;;;17.33;3.60;;;11.30;99.90;;;;;;5032226;28;20302;-73
2022/11/07 10:06:40;;;;;;;14.20;3.70;;;11.40;99.90;;;;;;5030039;28;20282;-73
2022/11/07 10:09:27;;;;;;;16.87;3.33;;;11.40;99.90;;;;;;5063483;28;20845;-74
2022/11/07 10:11:52;;;;;;;16.00;3.10;;;11.40;99.90;;;;;;5035202;28;20303;-73
2022/11/07 10:14:44;;;;;;;11.83;3.33;;;11.50;99.90;;;;;;5023171;28;20744;-73
2022/11/07 10:17:29;;;;;;;12.60;3.83;;;11.50;99.90;;;;;;5038914;28;20047;-73
2022/11/07 10:20:34;;;;;;;12.50;3.67;;;11.50;99.90;;;;;;5027625;28;20539;-73
2022/11/07 10:23:22;;;;;;;15.40;3.20;;;11.60;99.90;;;;;;5046460;28;20278;-73
2022/11/07 10:26:11;;;;;;;16.27;4.00;;;11.60;99.90;;;;;;5046238;28;20289;-74
2022/11/07 10:28:45;;;;;;;18.83;3.57;;;11.60;99.90;;;;;;5029311;28;20749;-73
2022/11/07 10:31:13;;;;;;;9.35;3.40;;;11.60;99.90;;;;;;5039588;28;20290;-73
2022/11/07 10:33:55;;;;;;;13.63;3.40;;;11.60;99.90;;;;;;5046760;28;20064;-73
2022/11/07 10:36:30;;;;;;;13.17;3.20;;;11.60;99.90;;;;;;5050259;28;20782;-75
2022/11/07 10:38:55;;;;;;;15.50;3.90;;;11.60;99.90;;;;;;5042475;28;20284;-74
2022/11/07 10:41:28;;;;;;;14.90;3.47;;;11.60;99.90;;;;;;5008606;28;20044;-74
2022/11/07 10:44:23;;;;;;;12.17;3.07;;;11.60;99.90;;;;;;5048753;28;20082;-74
2022/11/07 10:46:49;;;;;;;14.40;3.53;;;11.60;99.90;;;;;;5031096;28;20295;-74
2022/11/07 10:49:23;;;;;;;12.27;3.73;;;11.60;99.90;;;;;;5032356;28;20051;-74
2022/11/07 10:51:50;;;;;;;13.60;3.88;;;11.60;99.90;;;;;;5032797;28;20106;-74
2022/11/07 10:54:26;;;;;;;14.37;3.47;;;11.50;99.90;;;;;;5030945;28;20115;-74
2022/11/07 10:57:16;;;;;;;13.97;4.00;;;11.60;99.90;;;;;;5018871;28;20275;-75
2022/11/07 10:59:58;;;;;;;21.23;4.20;;;11.60;99.90;;;;;;5032274;28;20297;-76
2022/11/07 11:02:52;;;;;;;19.27;4.23;;;11.70;99.90;;;;;;5051373;28;20321;-75
2022/11/07 11:05:29;;;;;;;13.83;3.70;;;11.70;99.90;;;;;;5035682;28;20642;-75
2022/11/07 11:08:05;;;;;;;16.03;3.77;;;11.70;99.90;;;;;;5031201;28;20286;-76
2022/11/07 11:10:37;;;;;;;15.70;3.40;;;11.80;99.90;;;;;;5047541;28;20279;-75
2022/11/07 11:13:03;;;;;;;16.17;4.17;;;11.80;99.90;;;;;;5020165;28;20786;-75
2022/11/07 11:15:29;;;;;;;13.30;3.30;;;11.80;99.90;;;;;;5032866;28;20273;-76
2022/11/07 11:18:01;;;;;;;18.83;4.30;;;11.80;99.90;;;;;;5049199;28;20545;-75
2022/11/07 11:20:53;;;;;;;14.87;4.13;;;11.80;99.90;;;;;;5030722;28;20453;-75
2022/11/07 11:23:25;;;;;;;18.43;4.70;;;11.80;99.90;;;;;;5032442;28;20285;-75
2022/11/07 11:25:58;;;;;;;12.63;4.10;;;11.80;99.90;;;;;;5031876;28;20275;-75
2022/11/07 11:28:30;;;;;;;15.97;4.00;;;11.80;99.90;;;;;;5046543;28;20506;-75
2022/11/07 11:31:06;;;;;;;12.90;5.20;;;11.90;99.90;;;;;;5033254;28;20690;-75
2022/11/07 11:33:46;;;;;;;13.23;4.10;;;12.10;99.90;;;;;;5065019;28;20370;-75
2022/11/07 11:36:22;;;;;;;14.13;4.97;;;12.20;99.90;;;;;;5017130;28;20293;-75
2022/11/07 11:38:54;;;;;;;11.63;4.00;;;12.30;99.90;;;;;;5047668;28;20282;-75
2022/11/07 11:41:43;;;;;;;10.73;3.90;;;12.30;99.90;;;;;;5014892;28;20285;-75
2022/11/07 11:44:30;;;;;;;13.73;4.20;;;12.40;99.90;;;;;;5047992;28;20283;-75
2022/11/07 11:47:26;;;;;;;12.07;4.00;;;12.40;99.90;;;;;;5048813;28;20288;-75
2022/11/07 11:49:58;;;;;;;11.43;4.53;;;12.40;99.90;;;;;;5032098;28;20317;-75
2022/11/07 11:52:24;;;;;;;11.47;3.90;;;12.40;99.90;;;;;;5036171;28;20094;-74
2022/11/07 11:54:52;;;;;;;12.07;4.20;;;12.40;99.90;;;;;;5031209;28;20274;-75
2022/11/07 11:57:22;;;;;;;13.30;4.30;;;12.40;99.90;;;;;;5031930;28;20333;-75
2022/11/07 11:59:57;;;;;;;12.60;4.40;;;12.50;99.90;;;;;;5047428;28;20278;-75
2022/11/07 12:02:49;;;;;;;11.40;3.90;;;12.50;99.90;;;;;;5051666;28;20766;-75
2022/11/07 12:05:32;;;;;;;14.77;3.93;;;12.50;99.90;;;;;;5063303;28;20395;-74
2022/11/07 12:08:32;;;;;;;14.57;3.90;;;12.50;99.90;;;;;;5063556;28;20334;-74
2022/11/07 12:11:27;;;;;;;9.30;3.73;;;12.60;99.90;;;;;;5031320;28;20279;-75
2022/11/07 12:14:12;;;;;;;16.10;3.90;;;12.60;99.90;;;;;;5031657;28;20585;-75
2022/11/07 12:16:50;;;;;;;12.87;4.00;;;12.60;99.90;;;;;;5031536;28;20274;-76
2022/11/07 12:19:51;;;;;;;13.00;3.97;;;12.60;99.90;;;;;;5048350;28;20772;-75
2022/11/07 12:22:31;;;;;;;14.57;4.50;;;12.70;99.90;;;;;;4951617;28;20289;-74
2022/11/07 12:25:15;;;;;;;10.53;3.53;;;12.80;99.90;;;;;;5023198;28;20286;-74
2022/11/07 12:27:46;;;;;;;13.80;3.70;;;12.80;99.90;;;;;;5036197;28;20283;-74
2022/11/07 12:30:23;;;;;;;11.57;3.67;;;12.90;99.90;;;;;;5047569;28;20364;-75
2022/11/07 12:33:13;;;;;;;19.23;4.00;;;12.90;99.90;;;;;;5047287;28;20671;-76
2022/11/07 12:35:50;;;;;;;11.00;3.53;;;12.80;99.90;;;;;;5018261;28;20282;-74
2022/11/07 12:38:38;;;;;;;11.60;3.73;;;12.60;99.90;;;;;;5017618;28;20295;-74
2022/11/07 12:41:19;;;;;;;13.67;4.00;;;12.60;99.90;;;;;;5037427;28;20290;-75
2022/11/07 12:44:03;;;;;;;13.57;4.17;;;12.50;99.90;;;;;;5018257;28;20286;-75
2022/11/07 12:46:29;;;;;;;14.00;3.93;;;12.50;99.90;;;;;;5047776;28;20832;-74
2022/11/07 12:49:08;;;;;;;11.83;3.60;;;12.50;99.90;;;;;;5026677;28;20299;-74
2022/11/07 12:51:54;;;;;;;13.80;4.43;;;12.40;99.90;;;;;;5047513;28;20071;-75
2022/11/07 12:54:45;;;;;;;19.03;4.37;;;12.50;99.90;;;;;;5023402;28;20287;-74
2022/11/07 12:57:19;;;;;;;14.60;4.07;;;12.50;99.90;;;;;;5053937;28;20899;-74
2022/11/07 12:59:53;;;;;;;12.87;4.03;;;12.50;99.90;;;;;;5029278;28;20317;-75
2022/11/07 13:02:24;;;;;;;10.70;3.97;;;12.50;99.90;;;;;;5050920;28;20695;-74
2022/11/07 13:05:04;;;;;;;14.83;4.17;;;12.50;99.90;;;;;;5051313;28;20382;-75
2022/11/07 13:07:41;;;;;;;17.17;3.60;;;12.60;99.90;;;;;;5060951;28;20283;-74